sensor_id;sensor_type;location;lat;lon;timestamp;P1;durP1;ratioP1;P2;durP2;ratioP2
61385;SDS011;47256;18.904;-99.054;2023-04-15T00:01:08;6.30;;;3.38;;
61385;SDS011;47256;18.904;-99.054;2023-04-15T00:03:36;7.85;;;4.22;;
61385;SDS011;47256;18.904;-99.054;2023-04-15T00:06:03;9.35;;;4.53;;
61385;SDS011;47256;18.904;-99.054;2023-04-15T00:08:32;8.05;;;4.60;;
61385;SDS011;47256;18.904;-99.054;2023-04-15T00:10:59;5.25;;;3.90;;
61385;SDS011;47256;18.904;-99.054;2023-04-15T00:13:30;10.82;;;4.43;;
61385;SDS011;47256;18.904;-99.054;2023-04-15T00:15:58;11.15;;;4.82;;
61385;SDS011;47256;18.904;-99.054;2023-04-15T00:18:27;6.95;;;4.72;;
61385;SDS011;47256;18.904;-99.054;2023-04-15T00:20:57;6.88;;;4.40;;
61385;SDS011;47256;18.904;-99.054;2023-04-15T00:23:24;5.45;;;3.72;;
61385;SDS011;47256;18.904;-99.054;2023-04-15T00:25:52;6.53;;;3.97;;
61385;SDS011;47256;18.904;-99.054;2023-04-15T00:28:20;7.85;;;4.95;;
61385;SDS011;47256;18.904;-99.054;2023-04-15T00:30:47;6.25;;;3.97;;
61385;SDS011;47256;18.904;-99.054;2023-04-15T00:33:15;6.03;;;4.50;;
61385;SDS011;47256;18.904;-99.054;2023-04-15T00:35:43;9.40;;;4.15;;
61385;SDS011;47256;18.904;-99.054;2023-04-15T00:38:10;11.57;;;4.72;;
61385;SDS011;47256;18.904;-99.054;2023-04-15T00:40:38;5.85;;;4.20;;
61385;SDS011;47256;18.904;-99.054;2023-04-15T00:43:06;8.82;;;4.07;;
61385;SDS011;47256;18.904;-99.054;2023-04-15T00:45:33;24.58;;;5.32;;
61385;SDS011;47256;18.904;-99.054;2023-04-15T00:48:00;16.75;;;6.43;;
61385;SDS011;47256;18.904;-99.054;2023-04-15T00:50:27;27.45;;;6.53;;
61385;SDS011;47256;18.904;-99.054;2023-04-15T00:52:54;12.93;;;5.32;;
61385;SDS011;47256;18.904;-99.054;2023-04-15T00:55:22;17.42;;;5.20;;
61385;SDS011;47256;18.904;-99.054;2023-04-15T00:57:49;27.42;;;6.82;;
61385;SDS011;47256;18.904;-99.054;2023-04-15T01:00:17;26.30;;;6.40;;
61385;SDS011;47256;18.904;-99.054;2023-04-15T01:02:45;9.20;;;5.50;;
61385;SDS011;47256;18.904;-99.054;2023-04-15T01:05:12;17.30;;;5.60;;
61385;SDS011;47256;18.904;-99.054;2023-04-15T01:07:42;16.88;;;6.13;;
61385;SDS011;47256;18.904;-99.054;2023-04-15T01:10:09;8.88;;;5.40;;
61385;SDS011;47256;18.904;-99.054;2023-04-15T01:12:37;16.00;;;5.88;;
61385;SDS011;47256;18.904;-99.054;2023-04-15T01:15:06;23.50;;;6.07;;
61385;SDS011;47256;18.904;-99.054;2023-04-15T01:17:35;8.98;;;5.22;;
61385;SDS011;47256;18.904;-99.054;2023-04-15T01:20:06;12.55;;;5.10;;
61385;SDS011;47256;18.904;-99.054;2023-04-15T01:22:37;8.35;;;4.40;;
61385;SDS011;47256;18.904;-99.054;2023-04-15T01:25:08;10.73;;;4.45;;
61385;SDS011;47256;18.904;-99.054;2023-04-15T01:27:40;16.10;;;5.30;;
61385;SDS011;47256;18.904;-99.054;2023-04-15T01:30:09;7.93;;;5.07;;
61385;SDS011;47256;18.904;-99.054;2023-04-15T01:32:36;9.02;;;5.13;;
61385;SDS011;47256;18.904;-99.054;2023-04-15T01:35:05;13.15;;;4.97;;
61385;SDS011;47256;18.904;-99.054;2023-04-15T01:37:32;7.32;;;4.72;;
61385;SDS011;47256;18.904;-99.054;2023-04-15T01:40:00;6.75;;;4.80;;
61385;SDS011;47256;18.904;-99.054;2023-04-15T01:42:28;10.00;;;5.75;;
61385;SDS011;47256;18.904;-99.054;2023-04-15T01:44:55;15.10;;;5.43;;
61385;SDS011;47256;18.904;-99.054;2023-04-15T01:47:23;14.50;;;5.72;;
61385;SDS011;47256;18.904;-99.054;2023-04-15T01:49:50;10.45;;;5.38;;
61385;SDS011;47256;18.904;-99.054;2023-04-15T01:52:18;12.30;;;5.20;;
61385;SDS011;47256;18.904;-99.054;2023-04-15T01:54:45;8.57;;;5.40;;
61385;SDS011;47256;18.904;-99.054;2023-04-15T01:57:13;12.82;;;5.60;;
61385;SDS011;47256;18.904;-99.054;2023-04-15T01:59:40;26.35;;;6.78;;
61385;SDS011;47256;18.904;-99.054;2023-04-15T02:02:08;18.65;;;6.40;;
61385;SDS011;47256;18.904;-99.054;2023-04-15T02:04:35;14.30;;;5.75;;
61385;SDS011;47256;18.904;-99.054;2023-04-15T02:07:03;10.95;;;6.50;;
61385;SDS011;47256;18.904;-99.054;2023-04-15T02:09:30;11.98;;;6.68;;
61385;SDS011;47256;18.904;-99.054;2023-04-15T02:11:58;12.80;;;6.05;;
61385;SDS011;47256;18.904;-99.054;2023-04-15T02:14:27;16.02;;;5.93;;
61385;SDS011;47256;18.904;-99.054;2023-04-15T02:16:54;13.98;;;6.43;;
61385;SDS011;47256;18.904;-99.054;2023-04-15T02:19:21;11.68;;;5.53;;
61385;SDS011;47256;18.904;-99.054;2023-04-15T02:21:49;25.52;;;7.78;;
61385;SDS011;47256;18.904;-99.054;2023-04-15T02:24:16;23.48;;;9.88;;
61385;SDS011;47256;18.904;-99.054;2023-04-15T02:26:44;37.40;;;9.30;;
61385;SDS011;47256;18.904;-99.054;2023-04-15T02:29:11;21.02;;;7.93;;
61385;SDS011;47256;18.904;-99.054;2023-04-15T02:31:39;16.10;;;8.60;;
61385;SDS011;47256;18.904;-99.054;2023-04-15T02:34:07;14.75;;;7.30;;
61385;SDS011;47256;18.904;-99.054;2023-04-15T02:36:34;12.95;;;8.07;;
61385;SDS011;47256;18.904;-99.054;2023-04-15T02:39:04;26.05;;;13.52;;
61385;SDS011;47256;18.904;-99.054;2023-04-15T02:41:31;23.25;;;10.38;;
61385;SDS011;47256;18.904;-99.054;2023-04-15T02:43:59;25.52;;;12.60;;
61385;SDS011;47256;18.904;-99.054;2023-04-15T02:46:27;31.05;;;14.35;;
61385;SDS011;47256;18.904;-99.054;2023-04-15T02:48:54;26.42;;;10.23;;
61385;SDS011;47256;18.904;-99.054;2023-04-15T02:51:24;18.60;;;7.90;;
61385;SDS011;47256;18.904;-99.054;2023-04-15T02:53:56;25.45;;;8.55;;
61385;SDS011;47256;18.904;-99.054;2023-04-15T02:56:23;11.63;;;6.88;;
61385;SDS011;47256;18.904;-99.054;2023-04-15T02:58:52;12.80;;;5.28;;
61385;SDS011;47256;18.904;-99.054;2023-04-15T03:01:21;11.55;;;6.00;;
61385;SDS011;47256;18.904;-99.054;2023-04-15T03:03:50;8.00;;;5.05;;
61385;SDS011;47256;18.904;-99.054;2023-04-15T03:06:17;16.52;;;5.05;;
61385;SDS011;47256;18.904;-99.054;2023-04-15T03:08:49;6.85;;;4.95;;
61385;SDS011;47256;18.904;-99.054;2023-04-15T03:11:18;7.68;;;5.15;;
61385;SDS011;47256;18.904;-99.054;2023-04-15T03:13:47;9.68;;;4.72;;
61385;SDS011;47256;18.904;-99.054;2023-04-15T03:16:25;14.88;;;5.28;;
61385;SDS011;47256;18.904;-99.054;2023-04-15T03:18:53;11.60;;;5.65;;
61385;SDS011;47256;18.904;-99.054;2023-04-15T03:21:23;14.88;;;6.70;;
61385;SDS011;47256;18.904;-99.054;2023-04-15T03:23:52;20.15;;;7.03;;
61385;SDS011;47256;18.904;-99.054;2023-04-15T03:26:26;14.52;;;5.55;;
61385;SDS011;47256;18.904;-99.054;2023-04-15T03:28:59;8.88;;;5.60;;
61385;SDS011;47256;18.904;-99.054;2023-04-15T03:31:28;9.68;;;5.60;;
61385;SDS011;47256;18.904;-99.054;2023-04-15T03:33:55;10.85;;;5.78;;
61385;SDS011;47256;18.904;-99.054;2023-04-15T03:36:25;16.20;;;6.03;;
61385;SDS011;47256;18.904;-99.054;2023-04-15T03:38:53;16.88;;;6.93;;
61385;SDS011;47256;18.904;-99.054;2023-04-15T03:41:21;13.63;;;6.30;;
61385;SDS011;47256;18.904;-99.054;2023-04-15T03:43:49;24.05;;;6.50;;
61385;SDS011;47256;18.904;-99.054;2023-04-15T03:46:20;17.15;;;6.80;;
61385;SDS011;47256;18.904;-99.054;2023-04-15T03:48:48;29.08;;;6.85;;
61385;SDS011;47256;18.904;-99.054;2023-04-15T03:51:17;26.52;;;7.53;;
61385;SDS011;47256;18.904;-99.054;2023-04-15T03:53:44;24.17;;;6.15;;
61385;SDS011;47256;18.904;-99.054;2023-04-15T03:56:12;12.95;;;7.53;;
61385;SDS011;47256;18.904;-99.054;2023-04-15T03:58:39;9.65;;;5.82;;
61385;SDS011;47256;18.904;-99.054;2023-04-15T04:01:06;10.65;;;5.97;;
61385;SDS011;47256;18.904;-99.054;2023-04-15T04:03:34;16.17;;;6.00;;
61385;SDS011;47256;18.904;-99.054;2023-04-15T04:06:02;12.20;;;6.05;;
61385;SDS011;47256;18.904;-99.054;2023-04-15T04:08:30;10.73;;;5.72;;
61385;SDS011;47256;18.904;-99.054;2023-04-15T04:10:57;11.95;;;5.45;;
61385;SDS011;47256;18.904;-99.054;2023-04-15T04:13:25;14.35;;;7.10;;
61385;SDS011;47256;18.904;-99.054;2023-04-15T04:15:53;17.55;;;7.47;;
61385;SDS011;47256;18.904;-99.054;2023-04-15T04:18:21;10.60;;;6.25;;
61385;SDS011;47256;18.904;-99.054;2023-04-15T04:20:48;18.67;;;6.32;;
61385;SDS011;47256;18.904;-99.054;2023-04-15T04:23:15;13.23;;;6.25;;
61385;SDS011;47256;18.904;-99.054;2023-04-15T04:25:43;12.18;;;6.65;;
61385;SDS011;47256;18.904;-99.054;2023-04-15T04:28:11;15.35;;;6.88;;
61385;SDS011;47256;18.904;-99.054;2023-04-15T04:30:39;12.20;;;6.57;;
61385;SDS011;47256;18.904;-99.054;2023-04-15T04:33:06;21.40;;;7.13;;
61385;SDS011;47256;18.904;-99.054;2023-04-15T04:35:34;14.52;;;6.40;;
61385;SDS011;47256;18.904;-99.054;2023-04-15T04:38:02;15.45;;;6.30;;
61385;SDS011;47256;18.904;-99.054;2023-04-15T04:40:31;16.95;;;6.57;;
61385;SDS011;47256;18.904;-99.054;2023-04-15T04:42:59;12.18;;;6.38;;
61385;SDS011;47256;18.904;-99.054;2023-04-15T04:45:27;14.57;;;6.85;;
61385;SDS011;47256;18.904;-99.054;2023-04-15T04:47:54;16.80;;;6.40;;
61385;SDS011;47256;18.904;-99.054;2023-04-15T04:50:22;11.63;;;7.05;;
61385;SDS011;47256;18.904;-99.054;2023-04-15T04:52:49;16.38;;;7.00;;
61385;SDS011;47256;18.904;-99.054;2023-04-15T04:55:18;8.73;;;6.20;;
61385;SDS011;47256;18.904;-99.054;2023-04-15T04:57:45;12.35;;;5.22;;
61385;SDS011;47256;18.904;-99.054;2023-04-15T05:00:15;11.23;;;6.47;;
61385;SDS011;47256;18.904;-99.054;2023-04-15T05:02:42;21.25;;;6.50;;
61385;SDS011;47256;18.904;-99.054;2023-04-15T05:05:11;13.40;;;6.60;;
61385;SDS011;47256;18.904;-99.054;2023-04-15T05:07:39;10.30;;;5.30;;
61385;SDS011;47256;18.904;-99.054;2023-04-15T05:10:07;12.25;;;5.68;;
61385;SDS011;47256;18.904;-99.054;2023-04-15T05:12:35;17.25;;;7.75;;
61385;SDS011;47256;18.904;-99.054;2023-04-15T05:15:04;10.68;;;6.28;;
61385;SDS011;47256;18.904;-99.054;2023-04-15T05:17:32;23.63;;;6.45;;
61385;SDS011;47256;18.904;-99.054;2023-04-15T05:20:00;15.40;;;6.68;;
61385;SDS011;47256;18.904;-99.054;2023-04-15T05:22:28;10.25;;;6.22;;
61385;SDS011;47256;18.904;-99.054;2023-04-15T05:24:55;10.88;;;5.88;;
61385;SDS011;47256;18.904;-99.054;2023-04-15T05:27:23;14.10;;;6.70;;
61385;SDS011;47256;18.904;-99.054;2023-04-15T05:29:50;16.02;;;6.60;;
61385;SDS011;47256;18.904;-99.054;2023-04-15T05:32:17;9.30;;;5.50;;
61385;SDS011;47256;18.904;-99.054;2023-04-15T05:34:44;15.88;;;6.32;;
61385;SDS011;47256;18.904;-99.054;2023-04-15T05:37:12;14.95;;;6.25;;
61385;SDS011;47256;18.904;-99.054;2023-04-15T05:39:39;11.85;;;5.57;;
61385;SDS011;47256;18.904;-99.054;2023-04-15T05:42:07;7.45;;;5.13;;
61385;SDS011;47256;18.904;-99.054;2023-04-15T05:44:34;18.38;;;7.10;;
61385;SDS011;47256;18.904;-99.054;2023-04-15T05:47:01;13.10;;;5.00;;
61385;SDS011;47256;18.904;-99.054;2023-04-15T05:49:29;10.82;;;5.45;;
61385;SDS011;47256;18.904;-99.054;2023-04-15T05:51:56;8.95;;;5.13;;
61385;SDS011;47256;18.904;-99.054;2023-04-15T05:54:23;14.68;;;6.50;;
61385;SDS011;47256;18.904;-99.054;2023-04-15T05:56:52;12.45;;;6.15;;
61385;SDS011;47256;18.904;-99.054;2023-04-15T05:59:20;7.82;;;5.47;;
61385;SDS011;47256;18.904;-99.054;2023-04-15T06:01:47;8.05;;;5.15;;
61385;SDS011;47256;18.904;-99.054;2023-04-15T06:04:17;11.07;;;6.13;;
61385;SDS011;47256;18.904;-99.054;2023-04-15T06:06:44;19.05;;;6.38;;
61385;SDS011;47256;18.904;-99.054;2023-04-15T06:09:12;15.63;;;6.43;;
61385;SDS011;47256;18.904;-99.054;2023-04-15T06:11:39;13.38;;;6.85;;
61385;SDS011;47256;18.904;-99.054;2023-04-15T06:14:06;15.23;;;5.20;;
61385;SDS011;47256;18.904;-99.054;2023-04-15T06:16:33;13.35;;;6.28;;
61385;SDS011;47256;18.904;-99.054;2023-04-15T06:19:01;13.68;;;6.45;;
61385;SDS011;47256;18.904;-99.054;2023-04-15T06:21:29;14.07;;;6.65;;
61385;SDS011;47256;18.904;-99.054;2023-04-15T06:23:57;15.82;;;6.03;;
61385;SDS011;47256;18.904;-99.054;2023-04-15T06:26:28;15.02;;;6.38;;
61385;SDS011;47256;18.904;-99.054;2023-04-15T06:28:55;12.55;;;6.15;;
61385;SDS011;47256;18.904;-99.054;2023-04-15T06:31:23;20.27;;;7.72;;
61385;SDS011;47256;18.904;-99.054;2023-04-15T06:33:50;22.40;;;7.03;;
61385;SDS011;47256;18.904;-99.054;2023-04-15T06:36:18;12.15;;;6.78;;
61385;SDS011;47256;18.904;-99.054;2023-04-15T06:38:45;13.75;;;6.38;;
61385;SDS011;47256;18.904;-99.054;2023-04-15T06:41:12;13.15;;;6.53;;
61385;SDS011;47256;18.904;-99.054;2023-04-15T06:43:39;9.23;;;5.30;;
61385;SDS011;47256;18.904;-99.054;2023-04-15T06:46:07;17.58;;;6.97;;
61385;SDS011;47256;18.904;-99.054;2023-04-15T06:48:34;12.75;;;6.55;;
61385;SDS011;47256;18.904;-99.054;2023-04-15T06:51:01;17.05;;;7.32;;
61385;SDS011;47256;18.904;-99.054;2023-04-15T06:53:29;13.60;;;5.75;;
61385;SDS011;47256;18.904;-99.054;2023-04-15T06:55:56;6.28;;;5.18;;
61385;SDS011;47256;18.904;-99.054;2023-04-15T06:58:23;21.13;;;7.07;;
61385;SDS011;47256;18.904;-99.054;2023-04-15T07:00:51;10.95;;;5.70;;
61385;SDS011;47256;18.904;-99.054;2023-04-15T07:03:18;12.38;;;6.40;;
61385;SDS011;47256;18.904;-99.054;2023-04-15T07:05:46;15.35;;;6.15;;
61385;SDS011;47256;18.904;-99.054;2023-04-15T07:08:13;11.50;;;5.82;;
61385;SDS011;47256;18.904;-99.054;2023-04-15T07:10:41;10.70;;;6.05;;
61385;SDS011;47256;18.904;-99.054;2023-04-15T07:13:08;12.40;;;6.00;;
61385;SDS011;47256;18.904;-99.054;2023-04-15T07:15:35;11.93;;;6.15;;
61385;SDS011;47256;18.904;-99.054;2023-04-15T07:18:02;18.25;;;7.63;;
61385;SDS011;47256;18.904;-99.054;2023-04-15T07:20:30;11.07;;;5.45;;
61385;SDS011;47256;18.904;-99.054;2023-04-15T07:22:57;11.38;;;6.50;;
61385;SDS011;47256;18.904;-99.054;2023-04-15T07:25:24;12.02;;;6.45;;
61385;SDS011;47256;18.904;-99.054;2023-04-15T07:27:51;10.48;;;6.35;;
61385;SDS011;47256;18.904;-99.054;2023-04-15T07:30:19;10.65;;;4.78;;
61385;SDS011;47256;18.904;-99.054;2023-04-15T07:32:46;9.65;;;5.82;;
61385;SDS011;47256;18.904;-99.054;2023-04-15T07:35:13;14.77;;;7.57;;
61385;SDS011;47256;18.904;-99.054;2023-04-15T07:37:41;13.75;;;6.07;;
61385;SDS011;47256;18.904;-99.054;2023-04-15T07:40:08;11.18;;;6.03;;
61385;SDS011;47256;18.904;-99.054;2023-04-15T07:42:36;13.43;;;5.85;;
61385;SDS011;47256;18.904;-99.054;2023-04-15T07:45:03;11.95;;;6.70;;
61385;SDS011;47256;18.904;-99.054;2023-04-15T07:47:31;13.32;;;6.20;;
61385;SDS011;47256;18.904;-99.054;2023-04-15T07:49:58;12.73;;;6.32;;
61385;SDS011;47256;18.904;-99.054;2023-04-15T07:52:27;14.02;;;6.65;;
61385;SDS011;47256;18.904;-99.054;2023-04-15T07:54:54;14.25;;;6.43;;
61385;SDS011;47256;18.904;-99.054;2023-04-15T07:57:22;20.38;;;7.60;;
61385;SDS011;47256;18.904;-99.054;2023-04-15T07:59:49;11.52;;;6.35;;
61385;SDS011;47256;18.904;-99.054;2023-04-15T08:02:16;15.77;;;7.00;;
61385;SDS011;47256;18.904;-99.054;2023-04-15T08:04:44;12.55;;;6.03;;
61385;SDS011;47256;18.904;-99.054;2023-04-15T08:07:11;24.42;;;5.90;;
61385;SDS011;47256;18.904;-99.054;2023-04-15T08:09:38;11.07;;;6.43;;
61385;SDS011;47256;18.904;-99.054;2023-04-15T08:12:06;10.70;;;6.28;;
61385;SDS011;47256;18.904;-99.054;2023-04-15T08:14:34;12.35;;;6.38;;
61385;SDS011;47256;18.904;-99.054;2023-04-15T08:17:01;17.42;;;6.93;;
61385;SDS011;47256;18.904;-99.054;2023-04-15T08:19:29;12.93;;;6.30;;
61385;SDS011;47256;18.904;-99.054;2023-04-15T08:21:56;17.30;;;6.05;;
61385;SDS011;47256;18.904;-99.054;2023-04-15T08:24:23;25.27;;;6.30;;
61385;SDS011;47256;18.904;-99.054;2023-04-15T08:26:51;14.77;;;5.70;;
61385;SDS011;47256;18.904;-99.054;2023-04-15T08:29:18;17.77;;;6.30;;
61385;SDS011;47256;18.904;-99.054;2023-04-15T08:31:46;14.82;;;5.78;;
61385;SDS011;47256;18.904;-99.054;2023-04-15T08:34:13;9.55;;;5.68;;
61385;SDS011;47256;18.904;-99.054;2023-04-15T08:36:41;13.40;;;5.63;;
61385;SDS011;47256;18.904;-99.054;2023-04-15T08:39:09;10.13;;;5.03;;
61385;SDS011;47256;18.904;-99.054;2023-04-15T08:41:40;12.77;;;5.45;;
61385;SDS011;47256;18.904;-99.054;2023-04-15T08:44:22;13.02;;;6.10;;
61385;SDS011;47256;18.904;-99.054;2023-04-15T08:46:50;10.52;;;5.47;;
61385;SDS011;47256;18.904;-99.054;2023-04-15T08:49:21;11.77;;;6.05;;
61385;SDS011;47256;18.904;-99.054;2023-04-15T08:51:53;15.32;;;5.55;;
61385;SDS011;47256;18.904;-99.054;2023-04-15T08:54:23;10.70;;;5.75;;
61385;SDS011;47256;18.904;-99.054;2023-04-15T08:56:52;12.55;;;5.95;;
61385;SDS011;47256;18.904;-99.054;2023-04-15T08:59:20;13.63;;;5.68;;
61385;SDS011;47256;18.904;-99.054;2023-04-15T09:01:48;8.73;;;5.55;;
61385;SDS011;47256;18.904;-99.054;2023-04-15T09:04:16;16.25;;;5.22;;
61385;SDS011;47256;18.904;-99.054;2023-04-15T09:06:44;10.15;;;5.53;;
61385;SDS011;47256;18.904;-99.054;2023-04-15T09:09:12;7.97;;;5.13;;
61385;SDS011;47256;18.904;-99.054;2023-04-15T09:11:39;8.10;;;4.95;;
61385;SDS011;47256;18.904;-99.054;2023-04-15T09:14:07;8.68;;;4.43;;
61385;SDS011;47256;18.904;-99.054;2023-04-15T09:19:27;10.70;;;4.43;;
61385;SDS011;47256;18.904;-99.054;2023-04-15T09:21:56;9.43;;;6.18;;
61385;SDS011;47256;18.904;-99.054;2023-04-15T09:24:24;17.17;;;7.53;;
61385;SDS011;47256;18.904;-99.054;2023-04-15T09:26:59;21.90;;;9.82;;
61385;SDS011;47256;18.904;-99.054;2023-04-15T09:29:27;28.67;;;11.15;;
61385;SDS011;47256;18.904;-99.054;2023-04-15T09:31:54;28.23;;;9.70;;
61385;SDS011;47256;18.904;-99.054;2023-04-15T09:34:21;49.20;;;17.20;;
61385;SDS011;47256;18.904;-99.054;2023-04-15T09:37:02;113.43;;;31.48;;
61385;SDS011;47256;18.904;-99.054;2023-04-15T09:39:51;91.25;;;29.55;;
61385;SDS011;47256;18.904;-99.054;2023-04-15T09:42:18;65.40;;;23.73;;
61385;SDS011;47256;18.904;-99.054;2023-04-15T09:44:49;42.17;;;16.08;;
61385;SDS011;47256;18.904;-99.054;2023-04-15T09:47:30;44.22;;;14.57;;
61385;SDS011;47256;18.904;-99.054;2023-04-15T09:49:58;43.70;;;16.40;;
61385;SDS011;47256;18.904;-99.054;2023-04-15T09:52:27;70.05;;;24.63;;
61385;SDS011;47256;18.904;-99.054;2023-04-15T09:54:58;40.33;;;13.93;;
61385;SDS011;47256;18.904;-99.054;2023-04-15T09:57:33;22.65;;;10.00;;
61385;SDS011;47256;18.904;-99.054;2023-04-15T10:00:02;16.38;;;5.95;;
61385;SDS011;47256;18.904;-99.054;2023-04-15T10:02:32;15.55;;;5.93;;
61385;SDS011;47256;18.904;-99.054;2023-04-15T10:05:03;21.60;;;8.25;;
61385;SDS011;47256;18.904;-99.054;2023-04-15T10:07:32;13.32;;;6.20;;
61385;SDS011;47256;18.904;-99.054;2023-04-15T10:10:00;29.63;;;11.65;;
61385;SDS011;47256;18.904;-99.054;2023-04-15T10:12:29;17.33;;;6.95;;
61385;SDS011;47256;18.904;-99.054;2023-04-15T10:14:59;28.98;;;10.77;;
61385;SDS011;47256;18.904;-99.054;2023-04-15T10:17:32;35.42;;;10.88;;
61385;SDS011;47256;18.904;-99.054;2023-04-15T10:20:02;25.60;;;10.18;;
61385;SDS011;47256;18.904;-99.054;2023-04-15T10:22:30;20.77;;;8.32;;
61385;SDS011;47256;18.904;-99.054;2023-04-15T10:24:58;18.48;;;7.15;;
61385;SDS011;47256;18.904;-99.054;2023-04-15T10:27:29;21.58;;;7.47;;
61385;SDS011;47256;18.904;-99.054;2023-04-15T10:29:57;15.80;;;6.72;;
61385;SDS011;47256;18.904;-99.054;2023-04-15T10:32:28;12.95;;;5.60;;
61385;SDS011;47256;18.904;-99.054;2023-04-15T10:34:55;9.65;;;4.75;;
61385;SDS011;47256;18.904;-99.054;2023-04-15T10:37:34;8.65;;;4.45;;
61385;SDS011;47256;18.904;-99.054;2023-04-15T10:42:50;8.60;;;4.93;;
61385;SDS011;47256;18.904;-99.054;2023-04-15T10:45:19;9.57;;;4.35;;
61385;SDS011;47256;18.904;-99.054;2023-04-15T10:47:50;7.90;;;4.10;;
61385;SDS011;47256;18.904;-99.054;2023-04-15T10:50:20;5.15;;;3.67;;
61385;SDS011;47256;18.904;-99.054;2023-04-15T10:52:49;5.75;;;3.67;;
61385;SDS011;47256;18.904;-99.054;2023-04-15T10:55:19;8.40;;;4.10;;
61385;SDS011;47256;18.904;-99.054;2023-04-15T10:57:57;8.45;;;3.83;;
61385;SDS011;47256;18.904;-99.054;2023-04-15T11:00:30;9.13;;;3.80;;
61385;SDS011;47256;18.904;-99.054;2023-04-15T11:03:09;7.35;;;4.03;;
61385;SDS011;47256;18.904;-99.054;2023-04-15T11:08:18;20.48;;;5.97;;
61385;SDS011;47256;18.904;-99.054;2023-04-15T11:13:15;8.27;;;5.40;;
61385;SDS011;47256;18.904;-99.054;2023-04-15T11:15:47;20.55;;;7.15;;
61385;SDS011;47256;18.904;-99.054;2023-04-15T11:20:56;14.15;;;6.85;;
61385;SDS011;47256;18.904;-99.054;2023-04-15T11:23:30;17.20;;;7.47;;
61385;SDS011;47256;18.904;-99.054;2023-04-15T11:25:58;15.65;;;6.25;;
61385;SDS011;47256;18.904;-99.054;2023-04-15T11:28:28;13.25;;;6.32;;
61385;SDS011;47256;18.904;-99.054;2023-04-15T11:30:56;16.98;;;5.68;;
61385;SDS011;47256;18.904;-99.054;2023-04-15T11:33:33;13.52;;;4.93;;
61385;SDS011;47256;18.904;-99.054;2023-04-15T11:36:01;13.52;;;4.75;;
61385;SDS011;47256;18.904;-99.054;2023-04-15T11:38:29;15.80;;;4.70;;
61385;SDS011;47256;18.904;-99.054;2023-04-15T11:40:57;11.60;;;5.80;;
61385;SDS011;47256;18.904;-99.054;2023-04-15T11:43:24;14.43;;;5.47;;
61385;SDS011;47256;18.904;-99.054;2023-04-15T11:45:55;16.00;;;5.35;;
61385;SDS011;47256;18.904;-99.054;2023-04-15T11:48:25;15.38;;;6.30;;
61385;SDS011;47256;18.904;-99.054;2023-04-15T11:56:06;21.77;;;5.80;;
61385;SDS011;47256;18.904;-99.054;2023-04-15T11:58:42;16.73;;;4.97;;
61385;SDS011;47256;18.904;-99.054;2023-04-15T12:01:11;18.73;;;5.85;;
61385;SDS011;47256;18.904;-99.054;2023-04-15T12:03:40;19.13;;;6.80;;
61385;SDS011;47256;18.904;-99.054;2023-04-15T12:08:59;19.25;;;5.28;;
61385;SDS011;47256;18.904;-99.054;2023-04-15T12:11:33;19.08;;;5.93;;
61385;SDS011;47256;18.904;-99.054;2023-04-15T12:16:36;8.77;;;5.25;;
61385;SDS011;47256;18.904;-99.054;2023-04-15T12:19:10;14.95;;;6.10;;
61385;SDS011;47256;18.904;-99.054;2023-04-15T12:21:40;12.70;;;6.07;;
61385;SDS011;47256;18.904;-99.054;2023-04-15T12:24:11;11.77;;;5.05;;
61385;SDS011;47256;18.904;-99.054;2023-04-15T12:26:45;12.88;;;5.50;;
61385;SDS011;47256;18.904;-99.054;2023-04-15T12:29:18;28.63;;;5.18;;
61385;SDS011;47256;18.904;-99.054;2023-04-15T12:31:51;13.75;;;4.65;;
61385;SDS011;47256;18.904;-99.054;2023-04-15T12:34:54;9.77;;;4.45;;
61385;SDS011;47256;18.904;-99.054;2023-04-15T12:37:21;19.02;;;4.68;;
61385;SDS011;47256;18.904;-99.054;2023-04-15T12:39:48;14.80;;;5.50;;
61385;SDS011;47256;18.904;-99.054;2023-04-15T12:42:18;12.18;;;4.97;;
61385;SDS011;47256;18.904;-99.054;2023-04-15T12:44:47;11.02;;;4.65;;
61385;SDS011;47256;18.904;-99.054;2023-04-15T12:47:14;10.32;;;5.43;;
61385;SDS011;47256;18.904;-99.054;2023-04-15T12:49:41;6.18;;;4.30;;
61385;SDS011;47256;18.904;-99.054;2023-04-15T12:52:09;8.10;;;4.78;;
61385;SDS011;47256;18.904;-99.054;2023-04-15T12:54:36;12.52;;;4.53;;
61385;SDS011;47256;18.904;-99.054;2023-04-15T12:57:04;6.30;;;4.00;;
61385;SDS011;47256;18.904;-99.054;2023-04-15T12:59:32;10.10;;;5.10;;
61385;SDS011;47256;18.904;-99.054;2023-04-15T13:01:59;20.48;;;5.15;;
61385;SDS011;47256;18.904;-99.054;2023-04-15T13:04:27;8.77;;;4.05;;
61385;SDS011;47256;18.904;-99.054;2023-04-15T13:06:55;7.82;;;3.95;;
61385;SDS011;47256;18.904;-99.054;2023-04-15T13:09:22;9.02;;;5.25;;
61385;SDS011;47256;18.904;-99.054;2023-04-15T13:11:49;14.60;;;5.10;;
61385;SDS011;47256;18.904;-99.054;2023-04-15T13:14:17;12.90;;;4.30;;
61385;SDS011;47256;18.904;-99.054;2023-04-15T13:16:44;10.25;;;5.80;;
61385;SDS011;47256;18.904;-99.054;2023-04-15T13:19:11;6.40;;;4.20;;
61385;SDS011;47256;18.904;-99.054;2023-04-15T13:21:39;8.48;;;4.85;;
61385;SDS011;47256;18.904;-99.054;2023-04-15T13:24:06;7.50;;;4.55;;
61385;SDS011;47256;18.904;-99.054;2023-04-15T13:26:34;10.00;;;4.68;;
61385;SDS011;47256;18.904;-99.054;2023-04-15T13:29:02;5.47;;;4.00;;
61385;SDS011;47256;18.904;-99.054;2023-04-15T13:31:29;23.10;;;6.03;;
61385;SDS011;47256;18.904;-99.054;2023-04-15T13:33:57;31.42;;;4.97;;
61385;SDS011;47256;18.904;-99.054;2023-04-15T13:36:24;23.35;;;6.03;;
61385;SDS011;47256;18.904;-99.054;2023-04-15T13:38:52;19.10;;;5.55;;
61385;SDS011;47256;18.904;-99.054;2023-04-15T13:41:19;54.00;;;8.13;;
61385;SDS011;47256;18.904;-99.054;2023-04-15T13:43:46;24.88;;;7.15;;
61385;SDS011;47256;18.904;-99.054;2023-04-15T13:46:14;23.20;;;6.93;;
61385;SDS011;47256;18.904;-99.054;2023-04-15T13:48:41;13.60;;;6.38;;
61385;SDS011;47256;18.904;-99.054;2023-04-15T13:51:08;10.52;;;5.32;;
61385;SDS011;47256;18.904;-99.054;2023-04-15T13:53:35;11.98;;;5.15;;
61385;SDS011;47256;18.904;-99.054;2023-04-15T13:56:03;15.57;;;5.82;;
61385;SDS011;47256;18.904;-99.054;2023-04-15T13:58:30;15.38;;;6.80;;
61385;SDS011;47256;18.904;-99.054;2023-04-15T14:00:57;14.98;;;6.28;;
61385;SDS011;47256;18.904;-99.054;2023-04-15T14:03:24;13.35;;;5.68;;
61385;SDS011;47256;18.904;-99.054;2023-04-15T14:05:52;16.00;;;6.10;;
61385;SDS011;47256;18.904;-99.054;2023-04-15T14:08:21;15.32;;;6.32;;
61385;SDS011;47256;18.904;-99.054;2023-04-15T14:10:49;10.15;;;5.78;;
61385;SDS011;47256;18.904;-99.054;2023-04-15T14:13:16;12.80;;;5.70;;
61385;SDS011;47256;18.904;-99.054;2023-04-15T14:15:44;23.48;;;7.30;;
61385;SDS011;47256;18.904;-99.054;2023-04-15T14:18:12;10.93;;;5.57;;
61385;SDS011;47256;18.904;-99.054;2023-04-15T14:20:39;8.75;;;5.85;;
61385;SDS011;47256;18.904;-99.054;2023-04-15T14:23:06;12.98;;;5.88;;
61385;SDS011;47256;18.904;-99.054;2023-04-15T14:25:33;26.83;;;8.07;;
61385;SDS011;47256;18.904;-99.054;2023-04-15T14:28:01;26.95;;;7.43;;
61385;SDS011;47256;18.904;-99.054;2023-04-15T14:30:28;10.07;;;5.70;;
61385;SDS011;47256;18.904;-99.054;2023-04-15T14:32:55;17.40;;;6.28;;
61385;SDS011;47256;18.904;-99.054;2023-04-15T14:35:23;19.45;;;5.70;;
61385;SDS011;47256;18.904;-99.054;2023-04-15T14:37:54;18.67;;;6.72;;
61385;SDS011;47256;18.904;-99.054;2023-04-15T14:40:22;16.00;;;6.72;;
61385;SDS011;47256;18.904;-99.054;2023-04-15T14:42:49;19.80;;;6.15;;